sensor_id;sensor_type;location;lat;lon;timestamp;P1;durP1;ratioP1;P2;durP2;ratioP2
54865;SDS011;40754;52.094;4.328;2022-10-26T00:03:55;14.05;;;6.45;;
54865;SDS011;40754;52.094;4.328;2022-10-26T00:10:00;13.13;;;6.13;;
54865;SDS011;40754;52.094;4.328;2022-10-26T00:12:26;10.15;;;5.97;;
54865;SDS011;40754;52.094;4.328;2022-10-26T00:14:51;13.85;;;6.55;;
54865;SDS011;40754;52.094;4.328;2022-10-26T00:17:19;11.70;;;6.10;;
54865;SDS011;40754;52.094;4.328;2022-10-26T00:19:47;15.45;;;6.28;;
54865;SDS011;40754;52.094;4.328;2022-10-26T00:22:13;15.38;;;6.25;;
54865;SDS011;40754;52.094;4.328;2022-10-26T00:24:48;16.98;;;7.45;;
54865;SDS011;40754;52.094;4.328;2022-10-26T00:27:13;11.80;;;6.47;;
54865;SDS011;40754;52.094;4.328;2022-10-26T00:29:39;16.73;;;6.97;;
54865;SDS011;40754;52.094;4.328;2022-10-26T00:32:11;12.93;;;6.30;;
54865;SDS011;40754;52.094;4.328;2022-10-26T00:34:37;13.00;;;6.88;;
54865;SDS011;40754;52.094;4.328;2022-10-26T00:37:03;12.40;;;6.30;;
54865;SDS011;40754;52.094;4.328;2022-10-26T00:39:28;13.40;;;6.35;;
54865;SDS011;40754;52.094;4.328;2022-10-26T00:41:54;17.70;;;5.90;;
54865;SDS011;40754;52.094;4.328;2022-10-26T00:47:15;15.30;;;6.85;;
54865;SDS011;40754;52.094;4.328;2022-10-26T00:49:47;13.30;;;5.88;;
54865;SDS011;40754;52.094;4.328;2022-10-26T00:55:01;10.60;;;6.75;;
54865;SDS011;40754;52.094;4.328;2022-10-26T00:57:28;12.80;;;6.20;;
54865;SDS011;40754;52.094;4.328;2022-10-26T00:59:57;13.63;;;6.45;;
54865;SDS011;40754;52.094;4.328;2022-10-26T01:02:27;14.48;;;6.43;;
54865;SDS011;40754;52.094;4.328;2022-10-26T01:08:09;18.23;;;6.45;;
54865;SDS011;40754;52.094;4.328;2022-10-26T01:11:21;24.83;;;7.75;;
54865;SDS011;40754;52.094;4.328;2022-10-26T01:13:36;13.10;;;6.45;;
54865;SDS011;40754;52.094;4.328;2022-10-26T01:16:16;13.30;;;6.38;;
54865;SDS011;40754;52.094;4.328;2022-10-26T01:25:54;13.02;;;5.72;;
54865;SDS011;40754;52.094;4.328;2022-10-26T01:44:03;13.98;;;6.03;;
54865;SDS011;40754;52.094;4.328;2022-10-26T01:46:52;16.77;;;5.65;;
54865;SDS011;40754;52.094;4.328;2022-10-26T01:49:25;14.35;;;5.57;;
54865;SDS011;40754;52.094;4.328;2022-10-26T01:55:42;16.65;;;6.00;;
54865;SDS011;40754;52.094;4.328;2022-10-26T01:58:54;10.82;;;5.53;;
54865;SDS011;40754;52.094;4.328;2022-10-26T02:07:30;11.70;;;5.80;;
54865;SDS011;40754;52.094;4.328;2022-10-26T02:29:29;12.10;;;5.35;;
54865;SDS011;40754;52.094;4.328;2022-10-26T02:38:21;13.60;;;6.53;;
54865;SDS011;40754;52.094;4.328;2022-10-26T02:41:14;9.70;;;5.95;;
54865;SDS011;40754;52.094;4.328;2022-10-26T02:47:14;13.25;;;6.32;;
54865;SDS011;40754;52.094;4.328;2022-10-26T02:49:50;15.00;;;6.25;;
54865;SDS011;40754;52.094;4.328;2022-10-26T02:52:20;15.25;;;6.20;;
54865;SDS011;40754;52.094;4.328;2022-10-26T02:55:35;9.65;;;6.25;;
54865;SDS011;40754;52.094;4.328;2022-10-26T02:58:17;16.85;;;6.68;;
54865;SDS011;40754;52.094;4.328;2022-10-26T03:01:01;12.27;;;6.38;;
54865;SDS011;40754;52.094;4.328;2022-10-26T03:03:39;9.77;;;5.60;;
54865;SDS011;40754;52.094;4.328;2022-10-26T03:09:23;11.73;;;6.50;;
54865;SDS011;40754;52.094;4.328;2022-10-26T03:11:54;14.55;;;6.85;;
54865;SDS011;40754;52.094;4.328;2022-10-26T03:14:20;12.82;;;6.00;;
54865;SDS011;40754;52.094;4.328;2022-10-26T03:16:58;15.88;;;6.65;;
54865;SDS011;40754;52.094;4.328;2022-10-26T03:19:24;15.02;;;6.20;;
54865;SDS011;40754;52.094;4.328;2022-10-26T03:22:25;13.50;;;6.13;;
54865;SDS011;40754;52.094;4.328;2022-10-26T03:25:09;11.57;;;6.28;;
54865;SDS011;40754;52.094;4.328;2022-10-26T03:27:35;10.25;;;6.13;;
54865;SDS011;40754;52.094;4.328;2022-10-26T03:30:11;12.95;;;6.65;;
54865;SDS011;40754;52.094;4.328;2022-10-26T03:32:38;12.15;;;6.57;;
54865;SDS011;40754;52.094;4.328;2022-10-26T03:35:09;15.48;;;6.85;;
54865;SDS011;40754;52.094;4.328;2022-10-26T03:37:38;14.15;;;6.50;;
54865;SDS011;40754;52.094;4.328;2022-10-26T03:40:12;13.05;;;6.45;;
54865;SDS011;40754;52.094;4.328;2022-10-26T03:42:42;11.18;;;6.38;;
54865;SDS011;40754;52.094;4.328;2022-10-26T03:45:08;15.40;;;6.57;;
54865;SDS011;40754;52.094;4.328;2022-10-26T03:47:40;16.70;;;7.05;;
54865;SDS011;40754;52.094;4.328;2022-10-26T03:53:44;13.13;;;6.13;;
54865;SDS011;40754;52.094;4.328;2022-10-26T03:56:15;15.57;;;6.05;;
54865;SDS011;40754;52.094;4.328;2022-10-26T03:58:50;12.73;;;6.30;;
54865;SDS011;40754;52.094;4.328;2022-10-26T04:12:02;12.30;;;6.05;;
54865;SDS011;40754;52.094;4.328;2022-10-26T04:14:35;14.32;;;6.32;;
54865;SDS011;40754;52.094;4.328;2022-10-26T04:17:01;13.15;;;6.05;;
54865;SDS011;40754;52.094;4.328;2022-10-26T04:23:02;10.60;;;6.20;;
54865;SDS011;40754;52.094;4.328;2022-10-26T04:28:20;14.35;;;6.18;;
54865;SDS011;40754;52.094;4.328;2022-10-26T04:30:49;11.82;;;6.32;;
54865;SDS011;40754;52.094;4.328;2022-10-26T04:33:21;13.07;;;6.75;;
54865;SDS011;40754;52.094;4.328;2022-10-26T04:35:49;10.90;;;6.95;;
54865;SDS011;40754;52.094;4.328;2022-10-26T04:38:21;13.13;;;6.13;;
54865;SDS011;40754;52.094;4.328;2022-10-26T04:41:17;13.75;;;6.88;;
54865;SDS011;40754;52.094;4.328;2022-10-26T04:43:55;14.35;;;6.38;;
54865;SDS011;40754;52.094;4.328;2022-10-26T04:46:30;13.68;;;6.50;;
54865;SDS011;40754;52.094;4.328;2022-10-26T04:48:56;11.75;;;5.97;;
54865;SDS011;40754;52.094;4.328;2022-10-26T04:51:21;9.00;;;5.97;;
54865;SDS011;40754;52.094;4.328;2022-10-26T05:02:41;11.82;;;6.28;;
54865;SDS011;40754;52.094;4.328;2022-10-26T05:05:16;16.75;;;5.97;;
54865;SDS011;40754;52.094;4.328;2022-10-26T05:07:54;14.82;;;6.57;;
54865;SDS011;40754;52.094;4.328;2022-10-26T05:10:25;14.85;;;5.80;;
54865;SDS011;40754;52.094;4.328;2022-10-26T05:16:00;12.50;;;6.00;;
54865;SDS011;40754;52.094;4.328;2022-10-26T05:18:26;10.32;;;5.22;;
54865;SDS011;40754;52.094;4.328;2022-10-26T05:20:52;11.75;;;5.72;;
54865;SDS011;40754;52.094;4.328;2022-10-26T05:23:21;13.68;;;5.90;;
54865;SDS011;40754;52.094;4.328;2022-10-26T05:25:53;9.57;;;5.60;;
54865;SDS011;40754;52.094;4.328;2022-10-26T05:31:13;16.90;;;6.05;;
54865;SDS011;40754;52.094;4.328;2022-10-26T05:34:39;13.70;;;5.63;;
54865;SDS011;40754;52.094;4.328;2022-10-26T05:38:01;13.43;;;5.53;;
54865;SDS011;40754;52.094;4.328;2022-10-26T05:40:57;12.73;;;5.32;;
54865;SDS011;40754;52.094;4.328;2022-10-26T05:43:37;10.50;;;5.82;;
54865;SDS011;40754;52.094;4.328;2022-10-26T05:49:03;11.02;;;5.60;;
54865;SDS011;40754;52.094;4.328;2022-10-26T05:59:24;11.38;;;5.00;;
54865;SDS011;40754;52.094;4.328;2022-10-26T06:05:01;12.02;;;5.22;;
54865;SDS011;40754;52.094;4.328;2022-10-26T06:08:23;8.77;;;4.65;;
54865;SDS011;40754;52.094;4.328;2022-10-26T06:11:22;13.80;;;5.05;;
54865;SDS011;40754;52.094;4.328;2022-10-26T06:14:46;10.20;;;4.85;;
54865;SDS011;40754;52.094;4.328;2022-10-26T06:30:27;9.10;;;4.68;;
54865;SDS011;40754;52.094;4.328;2022-10-26T06:33:02;12.27;;;4.50;;
54865;SDS011;40754;52.094;4.328;2022-10-26T06:36:08;16.45;;;5.28;;
54865;SDS011;40754;52.094;4.328;2022-10-26T06:41:26;12.88;;;4.82;;
54865;SDS011;40754;52.094;4.328;2022-10-26T06:50:35;17.67;;;5.05;;
54865;SDS011;40754;52.094;4.328;2022-10-26T06:54:04;16.10;;;4.97;;
54865;SDS011;40754;52.094;4.328;2022-10-26T06:56:59;11.38;;;4.78;;
54865;SDS011;40754;52.094;4.328;2022-10-26T07:14:05;13.18;;;4.47;;
54865;SDS011;40754;52.094;4.328;2022-10-26T07:30:39;8.50;;;3.53;;
54865;SDS011;40754;52.094;4.328;2022-10-26T07:33:44;8.93;;;3.85;;
54865;SDS011;40754;52.094;4.328;2022-10-26T07:47:16;10.43;;;3.70;;
54865;SDS011;40754;52.094;4.328;2022-10-26T07:49:52;12.18;;;3.67;;
54865;SDS011;40754;52.094;4.328;2022-10-26T07:52:38;11.65;;;3.80;;
54865;SDS011;40754;52.094;4.328;2022-10-26T07:55:25;8.55;;;3.53;;
54865;SDS011;40754;52.094;4.328;2022-10-26T07:58:01;7.28;;;3.10;;
54865;SDS011;40754;52.094;4.328;2022-10-26T08:00:26;6.28;;;3.40;;
54865;SDS011;40754;52.094;4.328;2022-10-26T08:02:59;6.60;;;2.87;;
54865;SDS011;40754;52.094;4.328;2022-10-26T08:05:29;6.15;;;3.20;;
54865;SDS011;40754;52.094;4.328;2022-10-26T08:07:58;10.43;;;3.65;;
54865;SDS011;40754;52.094;4.328;2022-10-26T08:10:50;9.65;;;3.67;;
54865;SDS011;40754;52.094;4.328;2022-10-26T08:13:19;12.60;;;3.15;;
54865;SDS011;40754;52.094;4.328;2022-10-26T08:15:47;6.35;;;3.45;;
54865;SDS011;40754;52.094;4.328;2022-10-26T08:18:19;5.97;;;3.17;;
54865;SDS011;40754;52.094;4.328;2022-10-26T08:20:44;7.32;;;3.50;;
54865;SDS011;40754;52.094;4.328;2022-10-26T08:23:42;7.35;;;3.20;;
54865;SDS011;40754;52.094;4.328;2022-10-26T08:26:16;9.82;;;3.00;;
54865;SDS011;40754;52.094;4.328;2022-10-26T08:28:54;8.80;;;3.17;;
54865;SDS011;40754;52.094;4.328;2022-10-26T08:31:22;7.40;;;3.33;;
54865;SDS011;40754;52.094;4.328;2022-10-26T08:33:48;11.20;;;3.30;;
54865;SDS011;40754;52.094;4.328;2022-10-26T08:36:15;8.52;;;3.35;;
54865;SDS011;40754;52.094;4.328;2022-10-26T08:38:55;10.55;;;3.60;;
54865;SDS011;40754;52.094;4.328;2022-10-26T08:41:37;13.65;;;3.50;;
54865;SDS011;40754;52.094;4.328;2022-10-26T08:48:31;10.25;;;3.60;;
54865;SDS011;40754;52.094;4.328;2022-10-26T09:01:35;9.07;;;3.63;;
54865;SDS011;40754;52.094;4.328;2022-10-26T09:17:10;11.90;;;3.00;;
54865;SDS011;40754;52.094;4.328;2022-10-26T09:25:40;13.23;;;3.15;;
54865;SDS011;40754;52.094;4.328;2022-10-26T09:28:15;6.78;;;2.90;;
54865;SDS011;40754;52.094;4.328;2022-10-26T09:30:48;9.00;;;3.03;;
54865;SDS011;40754;52.094;4.328;2022-10-26T09:33:24;9.43;;;2.80;;
54865;SDS011;40754;52.094;4.328;2022-10-26T09:36:07;5.78;;;3.00;;
54865;SDS011;40754;52.094;4.328;2022-10-26T11:24:46;7.72;;;2.30;;
54865;SDS011;40754;52.094;4.328;2022-10-26T11:27:47;10.38;;;2.35;;
54865;SDS011;40754;52.094;4.328;2022-10-26T11:30:19;13.23;;;2.42;;
54865;SDS011;40754;52.094;4.328;2022-10-26T11:32:48;8.10;;;2.50;;
54865;SDS011;40754;52.094;4.328;2022-10-26T11:35:21;9.02;;;2.83;;
54865;SDS011;40754;52.094;4.328;2022-10-26T11:48:53;8.60;;;2.95;;
54865;SDS011;40754;52.094;4.328;2022-10-26T11:54:43;12.35;;;2.22;;
54865;SDS011;40754;52.094;4.328;2022-10-26T11:57:32;11.82;;;2.60;;
54865;SDS011;40754;52.094;4.328;2022-10-26T12:02:26;7.05;;;2.33;;
54865;SDS011;40754;52.094;4.328;2022-10-26T12:07:37;7.15;;;2.38;;
54865;SDS011;40754;52.094;4.328;2022-10-26T12:10:05;10.30;;;2.47;;
54865;SDS011;40754;52.094;4.328;2022-10-26T12:12:40;8.55;;;2.33;;
54865;SDS011;40754;52.094;4.328;2022-10-26T12:15:39;9.95;;;2.40;;
54865;SDS011;40754;52.094;4.328;2022-10-26T12:18:14;10.75;;;2.92;;
54865;SDS011;40754;52.094;4.328;2022-10-26T12:20:50;8.70;;;2.08;;
54865;SDS011;40754;52.094;4.328;2022-10-26T12:23:33;8.20;;;2.42;;
54865;SDS011;40754;52.094;4.328;2022-10-26T12:26:36;8.50;;;2.15;;
54865;SDS011;40754;52.094;4.328;2022-10-26T12:34:02;8.85;;;2.55;;
54865;SDS011;40754;52.094;4.328;2022-10-26T12:44:39;8.07;;;2.50;;
54865;SDS011;40754;52.094;4.328;2022-10-26T12:52:41;7.78;;;2.00;;
54865;SDS011;40754;52.094;4.328;2022-10-26T12:55:14;6.53;;;2.20;;
54865;SDS011;40754;52.094;4.328;2022-10-26T13:08:51;7.82;;;2.15;;
54865;SDS011;40754;52.094;4.328;2022-10-26T13:11:27;6.88;;;2.13;;
54865;SDS011;40754;52.094;4.328;2022-10-26T13:14:05;65.82;;;5.78;;
54865;SDS011;40754;52.094;4.328;2022-10-26T13:16:31;8.10;;;2.17;;
54865;SDS011;40754;52.094;4.328;2022-10-26T13:18:57;32.55;;;3.85;;
54865;SDS011;40754;52.094;4.328;2022-10-26T13:21:24;15.18;;;2.40;;
54865;SDS011;40754;52.094;4.328;2022-10-26T13:26:21;7.60;;;2.00;;
54865;SDS011;40754;52.094;4.328;2022-10-26T13:28:52;6.85;;;2.30;;
54865;SDS011;40754;52.094;4.328;2022-10-26T13:33:56;10.82;;;2.63;;
54865;SDS011;40754;52.094;4.328;2022-10-26T13:36:31;6.72;;;2.08;;
54865;SDS011;40754;52.094;4.328;2022-10-26T13:39:03;4.97;;;1.75;;
54865;SDS011;40754;52.094;4.328;2022-10-26T13:41:37;7.47;;;2.60;;
54865;SDS011;40754;52.094;4.328;2022-10-26T13:44:05;6.25;;;2.00;;
54865;SDS011;40754;52.094;4.328;2022-10-26T13:46:35;8.75;;;2.25;;
54865;SDS011;40754;52.094;4.328;2022-10-26T13:49:04;4.90;;;2.03;;
54865;SDS011;40754;52.094;4.328;2022-10-26T13:51:40;9.27;;;2.13;;
54865;SDS011;40754;52.094;4.328;2022-10-26T13:54:22;4.85;;;2.15;;
54865;SDS011;40754;52.094;4.328;2022-10-26T13:57:16;8.07;;;2.00;;
54865;SDS011;40754;52.094;4.328;2022-10-26T13:59:53;7.68;;;2.10;;
54865;SDS011;40754;52.094;4.328;2022-10-26T14:02:25;6.32;;;2.42;;
54865;SDS011;40754;52.094;4.328;2022-10-26T14:10:29;7.45;;;2.30;;
54865;SDS011;40754;52.094;4.328;2022-10-26T14:12:58;9.82;;;2.47;;
54865;SDS011;40754;52.094;4.328;2022-10-26T14:15:29;8.63;;;2.17;;
54865;SDS011;40754;52.094;4.328;2022-10-26T14:18:00;4.70;;;2.10;;
54865;SDS011;40754;52.094;4.328;2022-10-26T14:20:27;6.68;;;1.90;;
54865;SDS011;40754;52.094;4.328;2022-10-26T14:22:54;9.73;;;2.50;;
54865;SDS011;40754;52.094;4.328;2022-10-26T14:25:24;8.18;;;1.95;;
54865;SDS011;40754;52.094;4.328;2022-10-26T14:27:51;9.80;;;2.08;;
54865;SDS011;40754;52.094;4.328;2022-10-26T14:32:49;9.75;;;1.90;;
54865;SDS011;40754;52.094;4.328;2022-10-26T14:35:15;8.38;;;1.92;;
54865;SDS011;40754;52.094;4.328;2022-10-26T14:37:45;7.85;;;2.00;;
54865;SDS011;40754;52.094;4.328;2022-10-26T14:40:21;6.95;;;1.92;;
54865;SDS011;40754;52.094;4.328;2022-10-26T14:42:53;7.32;;;2.05;;
54865;SDS011;40754;52.094;4.328;2022-10-26T14:45:21;11.38;;;2.63;;
54865;SDS011;40754;52.094;4.328;2022-10-26T14:47:49;9.38;;;2.00;;
54865;SDS011;40754;52.094;4.328;2022-10-26T14:50:22;5.50;;;1.83;;
54865;SDS011;40754;52.094;4.328;2022-10-26T14:52:52;9.07;;;2.13;;
54865;SDS011;40754;52.094;4.328;2022-10-26T14:55:19;6.65;;;1.88;;
54865;SDS011;40754;52.094;4.328;2022-10-26T14:57:45;6.05;;;2.03;;
54865;SDS011;40754;52.094;4.328;2022-10-26T15:00:20;5.07;;;1.83;;
54865;SDS011;40754;52.094;4.328;2022-10-26T15:02:53;9.32;;;2.20;;
54865;SDS011;40754;52.094;4.328;2022-10-26T15:07:48;4.68;;;1.88;;
54865;SDS011;40754;52.094;4.328;2022-10-26T15:16:05;11.13;;;2.53;;
54865;SDS011;40754;52.094;4.328;2022-10-26T15:19:05;5.82;;;1.95;;
54865;SDS011;40754;52.094;4.328;2022-10-26T15:21:37;8.63;;;2.10;;
54865;SDS011;40754;52.094;4.328;2022-10-26T15:24:11;4.57;;;1.90;;
54865;SDS011;40754;52.094;4.328;2022-10-26T15:26:47;6.38;;;2.22;;
54865;SDS011;40754;52.094;4.328;2022-10-26T15:32:02;9.30;;;2.30;;
54865;SDS011;40754;52.094;4.328;2022-10-26T15:34:28;14.82;;;2.30;;
54865;SDS011;40754;52.094;4.328;2022-10-26T15:36:57;8.07;;;2.30;;
54865;SDS011;40754;52.094;4.328;2022-10-26T15:39:24;11.45;;;2.20;;
54865;SDS011;40754;52.094;4.328;2022-10-26T15:41:50;10.50;;;2.03;;
54865;SDS011;40754;52.094;4.328;2022-10-26T15:44:18;8.23;;;2.05;;
54865;SDS011;40754;52.094;4.328;2022-10-26T15:46:45;12.90;;;2.55;;
54865;SDS011;40754;52.094;4.328;2022-10-26T15:49:18;12.82;;;2.25;;
54865;SDS011;40754;52.094;4.328;2022-10-26T15:51:45;9.23;;;2.40;;
54865;SDS011;40754;52.094;4.328;2022-10-26T15:54:11;16.90;;;3.05;;
54865;SDS011;40754;52.094;4.328;2022-10-26T15:56:38;9.82;;;2.60;;
54865;SDS011;40754;52.094;4.328;2022-10-26T15:59:13;10.35;;;2.60;;
54865;SDS011;40754;52.094;4.328;2022-10-26T16:01:43;13.18;;;2.45;;
54865;SDS011;40754;52.094;4.328;2022-10-26T16:04:09;13.30;;;2.72;;
54865;SDS011;40754;52.094;4.328;2022-10-26T16:06:36;9.32;;;2.38;;
54865;SDS011;40754;52.094;4.328;2022-10-26T16:09:04;8.63;;;2.25;;
54865;SDS011;40754;52.094;4.328;2022-10-26T16:11:30;9.73;;;2.20;;
54865;SDS011;40754;52.094;4.328;2022-10-26T16:13:56;14.02;;;2.85;;
54865;SDS011;40754;52.094;4.328;2022-10-26T16:16:22;11.43;;;3.60;;
54865;SDS011;40754;52.094;4.328;2022-10-26T16:18:51;11.00;;;2.30;;
54865;SDS011;40754;52.094;4.328;2022-10-26T16:21:17;9.30;;;2.40;;
54865;SDS011;40754;52.094;4.328;2022-10-26T16:23:46;12.20;;;2.70;;
54865;SDS011;40754;52.094;4.328;2022-10-26T16:26:14;13.88;;;3.03;;
54865;SDS011;40754;52.094;4.328;2022-10-26T16:28:39;15.75;;;2.78;;
54865;SDS011;40754;52.094;4.328;2022-10-26T16:31:06;11.80;;;3.33;;
54865;SDS011;40754;52.094;4.328;2022-10-26T16:33:34;17.08;;;3.80;;
54865;SDS011;40754;52.094;4.328;2022-10-26T16:36:03;9.90;;;2.38;;
54865;SDS011;40754;52.094;4.328;2022-10-26T16:38:29;13.20;;;2.97;;
54865;SDS011;40754;52.094;4.328;2022-10-26T16:41:12;11.05;;;2.67;;
54865;SDS011;40754;52.094;4.328;2022-10-26T16:43:44;15.25;;;4.05;;
54865;SDS011;40754;52.094;4.328;2022-10-26T16:48:37;18.60;;;3.28;;
54865;SDS011;40754;52.094;4.328;2022-10-26T16:53:35;19.23;;;3.75;;
54865;SDS011;40754;52.094;4.328;2022-10-26T16:56:05;15.45;;;3.65;;
54865;SDS011;40754;52.094;4.328;2022-10-26T16:58:37;21.27;;;3.13;;
54865;SDS011;40754;52.094;4.328;2022-10-26T17:01:03;20.77;;;5.30;;
54865;SDS011;40754;52.094;4.328;2022-10-26T17:03:29;23.23;;;5.70;;
54865;SDS011;40754;52.094;4.328;2022-10-26T17:06:02;20.08;;;4.68;;
54865;SDS011;40754;52.094;4.328;2022-10-26T17:08:30;9.52;;;3.00;;
54865;SDS011;40754;52.094;4.328;2022-10-26T17:13:33;14.55;;;3.17;;
54865;SDS011;40754;52.094;4.328;2022-10-26T17:16:03;14.52;;;3.55;;
54865;SDS011;40754;52.094;4.328;2022-10-26T17:18:29;22.50;;;3.85;;
54865;SDS011;40754;52.094;4.328;2022-10-26T17:20:55;17.85;;;3.65;;
54865;SDS011;40754;52.094;4.328;2022-10-26T17:23:20;16.48;;;3.17;;
54865;SDS011;40754;52.094;4.328;2022-10-26T17:25:46;16.75;;;3.33;;
54865;SDS011;40754;52.094;4.328;2022-10-26T17:28:11;14.93;;;3.45;;
54865;SDS011;40754;52.094;4.328;2022-10-26T17:30:40;15.68;;;3.10;;
54865;SDS011;40754;52.094;4.328;2022-10-26T17:33:05;17.60;;;3.78;;
54865;SDS011;40754;52.094;4.328;2022-10-26T17:35:34;19.08;;;3.80;;
54865;SDS011;40754;52.094;4.328;2022-10-26T17:38:00;23.30;;;3.90;;
54865;SDS011;40754;52.094;4.328;2022-10-26T17:40:26;15.35;;;3.63;;
54865;SDS011;40754;52.094;4.328;2022-10-26T17:42:51;18.48;;;3.78;;
54865;SDS011;40754;52.094;4.328;2022-10-26T17:45:17;16.02;;;3.80;;
54865;SDS011;40754;52.094;4.328;2022-10-26T17:47:42;18.15;;;3.65;;
54865;SDS011;40754;52.094;4.328;2022-10-26T17:50:11;14.20;;;5.05;;
54865;SDS011;40754;52.094;4.328;2022-10-26T17:52:36;14.68;;;4.55;;
54865;SDS011;40754;52.094;4.328;2022-10-26T17:55:02;14.73;;;3.75;;
54865;SDS011;40754;52.094;4.328;2022-10-26T17:57:28;10.98;;;4.03;;
54865;SDS011;40754;52.094;4.328;2022-10-26T17:59:53;10.20;;;3.03;;
54865;SDS011;40754;52.094;4.328;2022-10-26T18:02:21;17.25;;;3.80;;
54865;SDS011;40754;52.094;4.328;2022-10-26T18:04:47;10.00;;;3.05;;
54865;SDS011;40754;52.094;4.328;2022-10-26T18:07:13;18.33;;;3.53;;
54865;SDS011;40754;52.094;4.328;2022-10-26T18:09:41;15.90;;;3.60;;
54865;SDS011;40754;52.094;4.328;2022-10-26T18:12:06;20.05;;;3.28;;
54865;SDS011;40754;52.094;4.328;2022-10-26T18:14:32;15.38;;;4.35;;
54865;SDS011;40754;52.094;4.328;2022-10-26T18:16:58;13.00;;;3.20;;
54865;SDS011;40754;52.094;4.328;2022-10-26T18:19:23;14.40;;;3.42;;
54865;SDS011;40754;52.094;4.328;2022-10-26T18:21:49;16.08;;;3.70;;
54865;SDS011;40754;52.094;4.328;2022-10-26T18:24:14;16.70;;;3.78;;
54865;SDS011;40754;52.094;4.328;2022-10-26T18:26:40;11.13;;;3.35;;
54865;SDS011;40754;52.094;4.328;2022-10-26T18:29:05;17.90;;;3.80;;
54865;SDS011;40754;52.094;4.328;2022-10-26T18:31:31;15.25;;;3.60;;
54865;SDS011;40754;52.094;4.328;2022-10-26T18:34:02;14.00;;;3.53;;
54865;SDS011;40754;52.094;4.328;2022-10-26T18:36:29;10.25;;;3.42;;
54865;SDS011;40754;52.094;4.328;2022-10-26T18:38:54;8.88;;;3.08;;
54865;SDS011;40754;52.094;4.328;2022-10-26T18:41:20;11.10;;;3.47;;
54865;SDS011;40754;52.094;4.328;2022-10-26T18:43:50;11.18;;;3.58;;
54865;SDS011;40754;52.094;4.328;2022-10-26T18:46:38;9.23;;;2.33;;
54865;SDS011;40754;52.094;4.328;2022-10-26T18:49:09;15.68;;;2.70;;
54865;SDS011;40754;52.094;4.328;2022-10-26T18:51:35;14.20;;;3.40;;
54865;SDS011;40754;52.094;4.328;2022-10-26T18:54:00;10.63;;;2.83;;
54865;SDS011;40754;52.094;4.328;2022-10-26T18:56:29;11.02;;;2.70;;
54865;SDS011;40754;52.094;4.328;2022-10-26T18:58:55;17.17;;;3.38;;
54865;SDS011;40754;52.094;4.328;2022-10-26T19:01:26;9.82;;;2.85;;
54865;SDS011;40754;52.094;4.328;2022-10-26T19:03:54;8.13;;;2.70;;
54865;SDS011;40754;52.094;4.328;2022-10-26T19:06:31;10.95;;;2.83;;
54865;SDS011;40754;52.094;4.328;2022-10-26T19:09:01;16.02;;;4.05;;
54865;SDS011;40754;52.094;4.328;2022-10-26T19:11:28;12.40;;;3.22;;
54865;SDS011;40754;52.094;4.328;2022-10-26T19:13:54;10.27;;;2.60;;
54865;SDS011;40754;52.094;4.328;2022-10-26T19:16:21;14.10;;;3.00;;
54865;SDS011;40754;52.094;4.328;2022-10-26T19:18:48;16.73;;;3.13;;
54865;SDS011;40754;52.094;4.328;2022-10-26T19:21:14;12.35;;;3.00;;
54865;SDS011;40754;52.094;4.328;2022-10-26T19:23:51;11.27;;;3.03;;
54865;SDS011;40754;52.094;4.328;2022-10-26T19:26:19;14.10;;;2.60;;
54865;SDS011;40754;52.094;4.328;2022-10-26T19:28:46;14.60;;;3.17;;
54865;SDS011;40754;52.094;4.328;2022-10-26T19:31:13;12.02;;;2.97;;
54865;SDS011;40754;52.094;4.328;2022-10-26T19:33:39;16.48;;;3.00;;
54865;SDS011;40754;52.094;4.328;2022-10-26T19:36:09;12.82;;;3.58;;
54865;SDS011;40754;52.094;4.328;2022-10-26T19:38:35;12.65;;;2.75;;
54865;SDS011;40754;52.094;4.328;2022-10-26T19:41:05;12.85;;;2.90;;
54865;SDS011;40754;52.094;4.328;2022-10-26T19:43:32;13.32;;;3.17;;
54865;SDS011;40754;52.094;4.328;2022-10-26T19:46:03;17.23;;;3.38;;
54865;SDS011;40754;52.094;4.328;2022-10-26T19:48:31;11.07;;;2.83;;
54865;SDS011;40754;52.094;4.328;2022-10-26T19:50:56;12.55;;;3.35;;
54865;SDS011;40754;52.094;4.328;2022-10-26T19:53:22;11.13;;;3.03;;
54865;SDS011;40754;52.094;4.328;2022-10-26T19:55:48;16.38;;;3.30;;
54865;SDS011;40754;52.094;4.328;2022-10-26T19:58:18;10.95;;;2.72;;
54865;SDS011;40754;52.094;4.328;2022-10-26T20:00:44;18.42;;;3.90;;
54865;SDS011;40754;52.094;4.328;2022-10-26T20:03:10;10.50;;;3.42;;
54865;SDS011;40754;52.094;4.328;2022-10-26T20:05:40;14.98;;;3.88;;
54865;SDS011;40754;52.094;4.328;2022-10-26T20:08:06;14.13;;;3.30;;
54865;SDS011;40754;52.094;4.328;2022-10-26T20:10:42;27.20;;;7.10;;
54865;SDS011;40754;52.094;4.328;2022-10-26T20:13:11;20.27;;;5.90;;
54865;SDS011;40754;52.094;4.328;2022-10-26T20:15:38;23.85;;;5.88;;
54865;SDS011;40754;52.094;4.328;2022-10-26T20:18:04;11.00;;;4.95;;
54865;SDS011;40754;52.094;4.328;2022-10-26T20:20:30;18.92;;;5.60;;
54865;SDS011;40754;52.094;4.328;2022-10-26T20:22:57;22.00;;;5.30;;
54865;SDS011;40754;52.094;4.328;2022-10-26T20:25:24;16.58;;;6.40;;
54865;SDS011;40754;52.094;4.328;2022-10-26T20:27:50;20.13;;;6.18;;
54865;SDS011;40754;52.094;4.328;2022-10-26T20:30:15;15.00;;;4.78;;
54865;SDS011;40754;52.094;4.328;2022-10-26T20:32:41;18.95;;;4.30;;
54865;SDS011;40754;52.094;4.328;2022-10-26T20:35:07;8.48;;;3.10;;
54865;SDS011;40754;52.094;4.328;2022-10-26T20:37:33;15.77;;;3.85;;
54865;SDS011;40754;52.094;4.328;2022-10-26T20:39:59;11.80;;;3.92;;
54865;SDS011;40754;52.094;4.328;2022-10-26T20:42:25;9.20;;;3.10;;
54865;SDS011;40754;52.094;4.328;2022-10-26T20:44:53;14.55;;;3.55;;
54865;SDS011;40754;52.094;4.328;2022-10-26T20:47:25;12.57;;;3.38;;
54865;SDS011;40754;52.094;4.328;2022-10-26T20:49:51;9.02;;;2.78;;
54865;SDS011;40754;52.094;4.328;2022-10-26T20:52:17;8.80;;;2.65;;
54865;SDS011;40754;52.094;4.328;2022-10-26T20:54:51;12.77;;;3.17;;
54865;SDS011;40754;52.094;4.328;2022-10-26T20:57:21;10.55;;;2.78;;
54865;SDS011;40754;52.094;4.328;2022-10-26T20:59:55;9.50;;;3.58;;
54865;SDS011;40754;52.094;4.328;2022-10-26T21:02:33;9.65;;;2.75;;
54865;SDS011;40754;52.094;4.328;2022-10-26T21:04:58;14.85;;;3.30;;
54865;SDS011;40754;52.094;4.328;2022-10-26T21:07:24;9.23;;;3.00;;
54865;SDS011;40754;52.094;4.328;2022-10-26T21:09:49;8.48;;;2.65;;
54865;SDS011;40754;52.094;4.328;2022-10-26T21:12:15;12.70;;;2.83;;
54865;SDS011;40754;52.094;4.328;2022-10-26T21:14:41;13.50;;;2.78;;
54865;SDS011;40754;52.094;4.328;2022-10-26T21:17:06;11.23;;;2.88;;
54865;SDS011;40754;52.094;4.328;2022-10-26T21:19:32;9.77;;;2.75;;
54865;SDS011;40754;52.094;4.328;2022-10-26T21:21:58;12.25;;;2.67;;
54865;SDS011;40754;52.094;4.328;2022-10-26T21:24:23;7.90;;;2.33;;
54865;SDS011;40754;52.094;4.328;2022-10-26T21:26:49;7.43;;;2.10;;
54865;SDS011;40754;52.094;4.328;2022-10-26T21:29:15;6.93;;;2.45;;
54865;SDS011;40754;52.094;4.328;2022-10-26T21:31:41;8.43;;;1.98;;
54865;SDS011;40754;52.094;4.328;2022-10-26T21:34:06;10.15;;;2.45;;
54865;SDS011;40754;52.094;4.328;2022-10-26T21:36:32;5.45;;;2.30;;
54865;SDS011;40754;52.094;4.328;2022-10-26T21:38:57;8.88;;;2.72;;
54865;SDS011;40754;52.094;4.328;2022-10-26T21:41:23;7.50;;;2.25;;
54865;SDS011;40754;52.094;4.328;2022-10-26T21:43:49;6.10;;;2.65;;
54865;SDS011;40754;52.094;4.328;2022-10-26T21:46:15;11.43;;;2.33;;
54865;SDS011;40754;52.094;4.328;2022-10-26T21:48:43;12.48;;;2.85;;
54865;SDS011;40754;52.094;4.328;2022-10-26T21:51:16;7.35;;;2.05;;
54865;SDS011;40754;52.094;4.328;2022-10-26T21:53:46;9.05;;;2.50;;
54865;SDS011;40754;52.094;4.328;2022-10-26T21:56:16;8.93;;;2.25;;
54865;SDS011;40754;52.094;4.328;2022-10-26T21:58:43;9.63;;;2.15;;